Appleton, New York
Current Conditions -  °F | °C
As of 10:53 PM on Saturday 25 Oct 2014 (Local Time) from KIAG Reporting Station
Scattered Clouds Scattered Clouds  
Wind Chill: 52°   Ceiling: Unl
Heat Index: 52°   Visibility: 10mi
Dew Point: 40°   Wind: 13mph
Humidity: 63%   Direction: 300°WNW
Pressure: 29.65"   Gusts: NA
Location:  43.33°N, 78.65°W
Report Text: KIAG 260253Z 30011KT 10SM FEW040 SCT080 11/04 A2965 RMK AO2 PK WND 32029/0155 SLP045 T01110044 53010
Loading
Personal Weather Stations






























Interactive Weather Map
Tropical Storm Tracking
New forecast layout! Learn more

10-Day Weather Forecast

Advertisements
Track Severe Weather on mobile